createdAt,value
2024-04-25T00:00:12.846Z,0.44
2024-04-25T00:02:39.456Z,0.39
2024-04-25T00:05:06.291Z,0.50
2024-04-25T00:07:32.889Z,0.52
2024-04-25T00:09:59.419Z,0.52
2024-04-25T00:12:26.071Z,0.40
2024-04-25T00:14:52.644Z,0.43
2024-04-25T00:17:19.357Z,0.50
2024-04-25T00:19:47.852Z,0.41
2024-04-25T00:22:14.445Z,0.35
2024-04-25T00:24:41.007Z,0.45
2024-04-25T00:27:09.928Z,0.45
2024-04-25T00:29:36.610Z,0.42
2024-04-25T00:34:29.753Z,0.31
2024-04-25T00:36:56.400Z,0.23
2024-04-25T00:39:22.936Z,0.21
2024-04-25T00:41:49.495Z,0.27
2024-04-25T00:44:16.051Z,0.20
2024-04-25T00:46:43.956Z,0.24
2024-04-25T00:49:12.482Z,0.21
2024-04-25T00:51:41.024Z,0.09
2024-04-25T00:54:07.707Z,0.14
2024-04-25T00:56:36.412Z,0.08
2024-04-25T00:59:03.417Z,0.02
2024-04-25T01:01:31.003Z,0.10
2024-04-25T01:04:01.318Z,0.06
2024-04-25T01:06:33.603Z,0.10
2024-04-25T01:09:01.287Z,0.09
2024-04-25T01:11:30.173Z,0.14
2024-04-25T01:13:56.958Z,0.14
2024-04-25T01:16:23.632Z,0.17
2024-04-25T01:18:50.298Z,0.18
2024-04-25T01:21:17.082Z,0.06
2024-04-25T01:23:45.106Z,0.16
2024-04-25T01:26:13.053Z,0.13
2024-04-25T01:28:41.510Z,0.15
2024-04-25T01:31:08.738Z,0.09
2024-04-25T01:33:39.029Z,0.13
2024-04-25T01:36:06.139Z,0.15
2024-04-25T01:38:32.831Z,0.02
2024-04-25T01:40:59.472Z,0.11
2024-04-25T01:43:26.016Z,0.17
2024-04-25T01:45:52.648Z,0.38
2024-04-25T01:48:19.428Z,0.38
2024-04-25T01:50:46.106Z,0.48
2024-04-25T01:53:12.710Z,0.43
2024-04-25T01:55:39.269Z,0.54
2024-04-25T01:58:05.873Z,0.51
2024-04-25T02:00:33.064Z,0.59
2024-04-25T02:02:59.711Z,0.67
2024-04-25T02:05:26.425Z,0.67
2024-04-25T02:07:53.079Z,0.71
2024-04-25T02:10:19.615Z,0.71
2024-04-25T02:12:46.248Z,0.74
2024-04-25T02:15:12.986Z,0.81
2024-04-25T02:17:41.210Z,0.73
2024-04-25T02:20:27.579Z,0.83
2024-04-25T02:23:13.697Z,0.80
2024-04-25T02:25:40.236Z,0.84
2024-04-25T02:28:07.003Z,0.91
2024-04-25T02:30:33.601Z,0.90
2024-04-25T02:33:00.257Z,0.90
2024-04-25T02:35:26.920Z,1.04
2024-04-25T02:37:53.503Z,1.06
2024-04-25T02:40:20.090Z,1.10
2024-04-25T02:42:46.702Z,1.11
2024-04-25T02:45:13.345Z,1.15
2024-04-25T02:47:40.029Z,1.21
2024-04-25T02:50:08.725Z,1.18
2024-04-25T02:52:35.259Z,1.12
2024-04-25T02:55:01.861Z,1.21
2024-04-25T02:57:28.442Z,1.08
2024-04-25T02:59:55.235Z,1.18
2024-04-25T03:02:21.868Z,1.26
2024-04-25T03:04:48.986Z,1.19
2024-04-25T03:07:15.601Z,1.29
2024-04-25T03:09:42.143Z,1.32
2024-04-25T03:12:08.793Z,1.29
2024-04-25T03:14:35.451Z,1.33
2024-04-25T03:17:02.161Z,1.24
2024-04-25T03:19:28.797Z,1.18
2024-04-25T03:21:55.369Z,1.26
2024-04-25T03:24:21.938Z,1.14
2024-04-25T03:26:48.607Z,1.23
2024-04-25T03:29:15.211Z,1.10
2024-04-25T03:31:41.842Z,1.22
2024-04-25T03:34:08.406Z,1.12
2024-04-25T03:36:34.988Z,1.16
2024-04-25T03:39:01.569Z,1.12
2024-04-25T03:41:29.022Z,1.08
2024-04-25T03:43:55.648Z,1.03
2024-04-25T03:46:22.211Z,0.94
2024-04-25T03:48:49.020Z,1.03
2024-04-25T03:51:15.602Z,1.04
2024-04-25T03:53:42.178Z,1.02
2024-04-25T03:56:08.854Z,1.01
2024-04-25T03:58:35.450Z,1.00
2024-04-25T04:01:02.451Z,0.97
2024-04-25T04:03:29.066Z,0.96
2024-04-25T04:05:55.689Z,0.97
2024-04-25T04:08:22.669Z,0.95
2024-04-25T04:10:49.241Z,0.93
2024-04-25T04:13:15.985Z,0.93
2024-04-25T04:15:42.573Z,0.91
2024-04-25T04:18:09.235Z,0.92
2024-04-25T04:20:36.590Z,0.81
2024-04-25T04:23:03.226Z,0.92
2024-04-25T04:25:29.822Z,0.94
2024-04-25T04:27:56.364Z,0.95
2024-04-25T04:30:22.992Z,0.93
2024-04-25T04:32:49.706Z,0.96
2024-04-25T04:35:16.409Z,0.96
2024-04-25T04:37:42.967Z,0.96
2024-04-25T04:40:10.043Z,0.99
2024-04-25T04:42:37.086Z,0.98
2024-04-25T04:45:04.192Z,1.03
2024-04-25T04:47:30.936Z,0.96
2024-04-25T04:49:57.543Z,0.97
2024-04-25T04:52:24.150Z,1.03
2024-04-25T04:54:50.693Z,1.08
2024-04-25T04:57:17.471Z,1.01
2024-04-25T04:59:44.026Z,1.16
2024-04-25T05:02:10.666Z,1.22
2024-04-25T05:04:37.724Z,1.29
2024-04-25T05:07:05.032Z,1.34
2024-04-25T05:09:31.623Z,1.28
2024-04-25T05:11:58.334Z,1.42
2024-04-25T05:14:24.977Z,1.45
2024-04-25T05:16:51.734Z,1.47
2024-04-25T05:19:18.358Z,1.50
2024-04-25T05:21:47.574Z,1.55
2024-04-25T05:24:14.122Z,1.63
2024-04-25T05:26:40.821Z,1.60
2024-04-25T05:29:08.349Z,1.71
2024-04-25T05:31:35.056Z,1.73
2024-04-25T05:34:01.692Z,1.69
2024-04-25T05:36:28.588Z,1.87
2024-04-25T05:38:55.298Z,1.91
2024-04-25T05:41:23.416Z,1.99
2024-04-25T05:43:52.215Z,2.04
2024-04-25T05:46:19.734Z,2.03
2024-04-25T05:48:46.454Z,2.07
2024-04-25T05:51:13.153Z,2.11
2024-04-25T05:53:39.822Z,2.28
2024-04-25T05:56:06.646Z,2.04
2024-04-25T05:58:33.266Z,2.37
2024-04-25T06:01:00.201Z,2.40
2024-04-25T06:03:26.890Z,2.40
2024-04-25T06:05:54.138Z,2.50
2024-04-25T06:08:20.750Z,2.62
2024-04-25T06:10:47.643Z,2.91
2024-04-25T06:13:14.402Z,3.16
2024-04-25T06:15:41.039Z,3.31
2024-04-25T06:18:08.830Z,3.45
2024-04-25T06:20:35.670Z,3.41
2024-04-25T06:23:04.692Z,3.42
2024-04-25T06:25:31.258Z,3.72
2024-04-25T06:27:57.819Z,3.90
2024-04-25T06:30:24.406Z,3.99
2024-04-25T06:32:51.276Z,4.23
2024-04-25T06:35:18.053Z,4.39
2024-04-25T06:37:44.693Z,4.57
2024-04-25T06:40:11.525Z,4.55
2024-04-25T06:42:38.147Z,4.71
2024-04-25T06:45:05.310Z,4.78
2024-04-25T06:47:32.938Z,4.94
2024-04-25T06:49:59.743Z,5.03
2024-04-25T06:52:26.351Z,5.04
2024-04-25T06:54:52.953Z,5.05
2024-04-25T06:57:19.506Z,5.12
2024-04-25T06:59:48.188Z,5.12
2024-04-25T07:02:18.164Z,5.04
2024-04-25T07:04:45.187Z,4.93
2024-04-25T07:07:11.780Z,4.74
2024-04-25T07:09:38.607Z,4.66
2024-04-25T07:12:06.721Z,4.64
2024-04-25T07:14:33.349Z,4.43
2024-04-25T07:16:59.967Z,4.41
2024-04-25T07:19:26.592Z,4.26
2024-04-25T07:21:53.231Z,4.25
2024-04-25T07:24:19.916Z,4.25
2024-04-25T07:26:46.577Z,4.10
2024-04-25T07:29:13.548Z,4.14
2024-04-25T07:31:40.226Z,4.21
2024-04-25T07:34:06.885Z,4.06
2024-04-25T07:36:36.748Z,4.09
2024-04-25T07:39:04.701Z,4.08
2024-04-25T07:41:33.210Z,4.07
2024-04-25T07:43:59.988Z,3.95
2024-04-25T07:46:26.916Z,4.05
2024-04-25T07:48:53.870Z,3.94
2024-04-25T07:51:20.536Z,4.03
2024-04-25T07:53:47.135Z,4.01
2024-04-25T07:56:13.923Z,4.00
2024-04-25T07:58:40.537Z,4.00
2024-04-25T08:01:08.170Z,4.04
2024-04-25T08:03:35.415Z,4.14
2024-04-25T08:06:02.548Z,4.08
2024-04-25T08:08:29.223Z,4.05
2024-04-25T08:10:55.887Z,4.11
2024-04-25T08:13:22.646Z,4.04
2024-04-25T08:15:49.354Z,4.12
2024-04-25T08:18:16.103Z,4.07
2024-04-25T08:20:43.060Z,4.11
2024-04-25T08:23:09.768Z,4.11
2024-04-25T08:25:36.437Z,4.12
2024-04-25T08:28:03.071Z,4.18
2024-04-25T08:30:29.860Z,4.31
2024-04-25T08:32:56.861Z,4.36
2024-04-25T08:35:23.766Z,4.54
2024-04-25T08:37:50.572Z,4.74
2024-04-25T08:40:17.375Z,4.82
2024-04-25T08:42:45.691Z,4.91
2024-04-25T08:45:12.560Z,4.92
2024-04-25T08:47:40.642Z,4.89
2024-04-25T08:50:10.731Z,4.98
2024-04-25T08:52:44.194Z,5.11
2024-04-25T08:55:13.565Z,5.09
2024-04-25T08:57:40.301Z,5.21
2024-04-25T09:00:07.704Z,5.22
2024-04-25T09:02:37.793Z,5.10
2024-04-25T09:05:08.753Z,4.94
2024-04-25T09:07:35.396Z,4.76
2024-04-25T09:10:02.063Z,4.76
2024-04-25T09:12:33.842Z,4.76
2024-04-25T09:15:00.853Z,4.82
2024-04-25T09:17:28.224Z,5.07
2024-04-25T09:19:57.506Z,5.57
2024-04-25T09:22:24.353Z,6.08
2024-04-25T09:24:54.166Z,6.57
2024-04-25T09:27:20.776Z,6.98
2024-04-25T09:29:48.538Z,7.06
2024-04-25T09:32:19.059Z,7.13
2024-04-25T09:34:48.030Z,7.36
2024-04-25T09:37:14.912Z,7.51
2024-04-25T09:39:43.067Z,7.32
2024-04-25T09:42:13.336Z,7.37
2024-04-25T09:44:40.796Z,7.80
2024-04-25T09:47:10.682Z,7.57
2024-04-25T09:49:46.463Z,7.60
2024-04-25T09:52:20.412Z,7.61
2024-04-25T09:54:48.917Z,7.58
2024-04-25T09:57:18.257Z,7.68
2024-04-25T09:59:54.214Z,7.76
2024-04-25T10:02:21.872Z,7.49
2024-04-25T10:04:50.378Z,7.41
2024-04-25T10:07:19.633Z,7.21
2024-04-25T10:09:49.451Z,7.52
2024-04-25T10:12:24.112Z,7.40
2024-04-25T10:15:08.724Z,7.33
2024-04-25T10:17:36.811Z,7.22
2024-04-25T10:20:05.578Z,7.05
2024-04-25T10:22:34.263Z,7.07
2024-04-25T10:25:02.349Z,7.01
2024-04-25T10:27:30.815Z,6.97
2024-04-25T10:30:08.086Z,7.00
2024-04-25T10:32:35.332Z,7.01
2024-04-25T10:35:02.781Z,6.80
2024-04-25T10:37:29.934Z,6.65
2024-04-25T10:40:02.638Z,6.33
2024-04-25T10:42:29.334Z,6.18
2024-04-25T10:44:56.321Z,6.16
2024-04-25T10:47:23.648Z,6.40
2024-04-25T10:49:50.445Z,6.71
2024-04-25T10:52:17.229Z,7.05
2024-04-25T10:54:44.192Z,7.37
2024-04-25T10:57:14.527Z,7.69
2024-04-25T10:59:41.373Z,7.86
2024-04-25T11:02:10.350Z,8.10
2024-04-25T11:04:41.254Z,8.01
2024-04-25T11:07:10.647Z,8.11
2024-04-25T11:09:37.854Z,8.14
2024-04-25T11:12:04.667Z,8.04
2024-04-25T11:14:31.308Z,7.91
2024-04-25T11:17:02.031Z,7.76
2024-04-25T11:21:59.377Z,7.35
2024-04-25T11:24:26.876Z,6.98
2024-04-25T11:26:54.450Z,6.73
2024-04-25T11:29:22.360Z,6.50
2024-04-25T11:31:49.133Z,6.19
2024-04-25T11:34:23.482Z,6.08
2024-04-25T11:37:06.111Z,5.76
2024-04-25T11:39:36.810Z,5.43
2024-04-25T11:42:08.652Z,5.10
2024-04-25T11:44:35.581Z,5.00
2024-04-25T11:47:03.089Z,5.13
2024-04-25T11:49:30.823Z,5.25
2024-04-25T11:51:57.423Z,5.37
2024-04-25T11:54:23.939Z,5.51
2024-04-25T11:56:50.893Z,5.70
2024-04-25T11:59:17.536Z,5.83
2024-04-25T12:01:44.405Z,6.04
2024-04-25T12:04:11.602Z,6.08
2024-04-25T12:06:38.402Z,6.19
2024-04-25T12:09:04.929Z,6.16
2024-04-25T12:11:36.740Z,6.28
2024-04-25T12:14:04.296Z,6.34
2024-04-25T12:16:30.974Z,6.59
2024-04-25T12:18:57.670Z,6.96
2024-04-25T12:21:25.100Z,7.29
2024-04-25T12:23:52.143Z,7.77
2024-04-25T12:26:20.611Z,8.23
2024-04-25T12:28:48.223Z,8.50
2024-04-25T12:31:14.863Z,8.44
2024-04-25T12:33:42.271Z,8.28
2024-04-25T12:36:09.007Z,8.18
2024-04-25T12:38:35.662Z,8.08
2024-04-25T12:41:02.296Z,7.91
2024-04-25T12:43:28.840Z,7.96
2024-04-25T12:46:02.849Z,8.13
2024-04-25T12:48:30.630Z,8.20
2024-04-25T12:50:57.642Z,8.40
2024-04-25T12:53:24.400Z,8.67
2024-04-25T12:55:51.092Z,8.70
2024-04-25T12:58:17.700Z,8.51
2024-04-25T13:00:44.356Z,8.42
2024-04-25T13:03:11.041Z,8.51
2024-04-25T13:05:37.679Z,8.37
2024-04-25T13:08:04.503Z,8.47
2024-04-25T13:10:31.110Z,8.58
2024-04-25T13:12:57.658Z,8.64
2024-04-25T13:15:26.492Z,8.77
2024-04-25T13:17:53.944Z,9.12
2024-04-25T13:20:21.747Z,9.32
2024-04-25T13:22:48.327Z,9.40
2024-04-25T13:25:15.033Z,9.45
2024-04-25T13:27:41.609Z,9.46
2024-04-25T13:30:10.005Z,9.54
2024-04-25T13:32:38.999Z,9.62
2024-04-25T13:35:07.493Z,9.79
2024-04-25T13:37:34.065Z,9.71
2024-04-25T13:40:00.652Z,9.73
2024-04-25T13:42:27.344Z,9.54
2024-04-25T13:44:53.965Z,9.78
2024-04-25T13:47:20.557Z,9.76
2024-04-25T13:49:47.259Z,9.76
2024-04-25T13:52:13.912Z,9.56
2024-04-25T13:54:41.964Z,9.35
2024-04-25T13:57:08.750Z,9.12
2024-04-25T13:59:35.467Z,9.11
2024-04-25T14:02:02.161Z,8.97
2024-04-25T14:04:28.761Z,8.82
2024-04-25T14:06:55.344Z,8.85
2024-04-25T14:09:22.191Z,8.73
2024-04-25T14:11:49.006Z,8.66
2024-04-25T14:14:21.280Z,8.56
2024-04-25T14:16:50.814Z,8.57
2024-04-25T14:19:21.029Z,8.39
2024-04-25T14:21:47.622Z,8.40
2024-04-25T14:24:17.029Z,8.34
2024-04-25T14:27:03.035Z,8.41
2024-04-25T14:29:29.579Z,8.55
2024-04-25T14:31:56.157Z,8.48
2024-04-25T14:34:22.910Z,8.62
2024-04-25T14:36:51.608Z,8.50
2024-04-25T14:39:18.392Z,8.59
2024-04-25T14:41:45.188Z,8.59
2024-04-25T14:44:11.836Z,8.56
2024-04-25T14:46:38.534Z,8.55
2024-04-25T14:49:05.315Z,8.40
2024-04-25T14:51:31.926Z,8.23
2024-04-25T14:53:58.590Z,8.16
2024-04-25T14:56:25.292Z,8.07
2024-04-25T14:58:52.082Z,7.95
2024-04-25T15:01:19.742Z,7.90
2024-04-25T15:03:46.754Z,7.93
2024-04-25T15:06:13.360Z,7.73
2024-04-25T15:08:42.627Z,7.67
2024-04-25T15:11:13.846Z,7.73
2024-04-25T15:13:40.589Z,7.75
2024-04-25T15:16:09.616Z,7.57
2024-04-25T15:18:40.192Z,7.46
2024-04-25T15:21:07.768Z,7.53
2024-04-25T15:23:34.709Z,7.31
2024-04-25T15:26:01.332Z,7.21
2024-04-25T15:28:27.892Z,7.05
2024-04-25T15:30:54.513Z,7.11
2024-04-25T15:33:22.543Z,7.07
2024-04-25T15:35:49.357Z,7.11
2024-04-25T15:38:16.046Z,7.26
2024-04-25T15:40:42.833Z,7.24
2024-04-25T15:43:09.463Z,7.52
2024-04-25T15:45:36.003Z,7.70
2024-04-25T15:48:03.035Z,7.71
2024-04-25T15:50:29.734Z,7.62
2024-04-25T15:52:56.273Z,7.50
2024-04-25T15:55:22.827Z,7.57
2024-04-25T15:57:49.602Z,7.52
2024-04-25T16:00:16.375Z,7.39
2024-04-25T16:02:43.126Z,7.31
2024-04-25T16:05:09.792Z,7.26
2024-04-25T16:07:37.825Z,7.17
2024-04-25T16:10:05.022Z,7.03
2024-04-25T16:12:31.643Z,7.03
2024-04-25T16:14:58.315Z,7.13
2024-04-25T16:17:25.036Z,7.05
2024-04-25T16:19:51.713Z,7.02
2024-04-25T16:22:18.292Z,6.98
2024-04-25T16:24:44.883Z,6.92
2024-04-25T16:27:12.527Z,6.91
2024-04-25T16:29:39.350Z,6.89
2024-04-25T16:32:06.136Z,6.82
2024-04-25T16:34:32.781Z,6.59
2024-04-25T16:36:59.399Z,6.58
2024-04-25T16:39:26.742Z,6.40
2024-04-25T16:41:53.426Z,6.42
2024-04-25T16:44:22.403Z,6.34
2024-04-25T16:46:49.032Z,6.18
2024-04-25T16:49:15.729Z,5.96
2024-04-25T16:51:42.297Z,5.81
2024-04-25T16:54:09.005Z,5.55
2024-04-25T16:56:37.258Z,5.17
2024-04-25T16:59:04.068Z,5.04
2024-04-25T17:01:31.028Z,4.88
2024-04-25T17:03:57.948Z,4.71
2024-04-25T17:06:24.675Z,4.66
2024-04-25T17:08:51.437Z,4.57
2024-04-25T17:11:27.805Z,4.58
2024-04-25T17:13:59.013Z,4.66
2024-04-25T17:16:26.141Z,4.73
2024-04-25T17:18:56.021Z,4.80
2024-04-25T17:21:25.735Z,4.90
2024-04-25T17:23:56.640Z,4.97
2024-04-25T17:26:24.165Z,5.00
2024-04-25T17:28:54.675Z,5.00
2024-04-25T17:31:22.879Z,5.03
2024-04-25T17:33:50.392Z,5.08
2024-04-25T17:36:18.114Z,5.09
2024-04-25T17:38:44.789Z,5.00
2024-04-25T17:41:11.926Z,5.05
2024-04-25T17:43:39.395Z,4.99
2024-04-25T17:46:09.893Z,4.84
2024-04-25T17:48:36.706Z,4.84
2024-04-25T17:51:03.560Z,4.84
2024-04-25T17:53:30.135Z,4.77
2024-04-25T17:55:57.048Z,4.69
2024-04-25T17:58:23.971Z,4.67
2024-04-25T18:00:51.279Z,4.57
2024-04-25T18:03:17.933Z,4.50
2024-04-25T18:05:44.622Z,4.42
2024-04-25T18:08:12.469Z,4.34
2024-04-25T18:10:41.315Z,4.25
2024-04-25T18:13:07.922Z,4.21
2024-04-25T18:15:35.191Z,4.18
2024-04-25T18:18:03.137Z,4.09
2024-04-25T18:20:29.882Z,3.94
2024-04-25T18:22:56.530Z,3.95
2024-04-25T18:25:23.098Z,3.91
2024-04-25T18:27:49.786Z,3.79
2024-04-25T18:30:16.488Z,3.64
2024-04-25T18:32:43.188Z,3.72
2024-04-25T18:35:11.207Z,3.56
2024-04-25T18:37:38.113Z,3.50
2024-04-25T18:40:05.096Z,3.52
2024-04-25T18:42:31.689Z,3.46
2024-04-25T18:44:58.306Z,3.50
2024-04-25T18:47:24.949Z,3.46
2024-04-25T18:49:51.592Z,3.46
2024-04-25T18:52:18.156Z,3.43
2024-04-25T18:54:46.572Z,3.47
2024-04-25T18:57:15.104Z,3.47
2024-04-25T18:59:42.029Z,3.49
2024-04-25T19:02:08.658Z,3.52
2024-04-25T19:04:35.319Z,3.53
2024-04-25T19:07:06.253Z,3.47
2024-04-25T19:09:32.863Z,3.48
2024-04-25T19:11:59.433Z,3.46
2024-04-25T19:14:26.136Z,3.44
2024-04-25T19:16:53.663Z,3.42
2024-04-25T19:19:20.475Z,3.29
2024-04-25T19:21:49.699Z,3.25
2024-04-25T19:24:17.462Z,3.29
2024-04-25T19:26:45.515Z,3.27
2024-04-25T19:29:22.539Z,3.18
2024-04-25T19:31:50.739Z,3.11
2024-04-25T19:34:23.674Z,3.00
2024-04-25T19:36:54.460Z,3.01
2024-04-25T19:39:20.998Z,2.93
2024-04-25T19:41:50.131Z,2.93
2024-04-25T19:44:17.185Z,2.91
2024-04-25T19:46:44.048Z,2.89
2024-04-25T19:49:10.632Z,2.79
2024-04-25T19:51:41.276Z,2.84
2024-04-25T19:54:07.870Z,2.81
2024-04-25T19:56:34.478Z,2.77
2024-04-25T19:59:01.098Z,2.77
2024-04-25T20:01:27.667Z,2.73
2024-04-25T20:03:54.264Z,2.65
2024-04-25T20:06:25.199Z,2.65
2024-04-25T20:08:52.050Z,2.57
2024-04-25T20:11:18.866Z,2.61
2024-04-25T20:13:45.587Z,2.59
2024-04-25T20:16:17.133Z,2.50
2024-04-25T20:19:02.306Z,2.59
2024-04-25T20:21:28.840Z,2.41
2024-04-25T20:23:55.498Z,2.57
2024-04-25T20:26:22.150Z,2.55
2024-04-25T20:28:48.764Z,2.52
2024-04-25T20:31:18.492Z,2.47
2024-04-25T20:33:45.965Z,2.36
2024-04-25T20:36:14.915Z,2.46
2024-04-25T20:38:41.687Z,2.37
2024-04-25T20:41:12.001Z,2.43
2024-04-25T20:43:42.030Z,2.45
2024-04-25T20:46:08.816Z,2.44
2024-04-25T20:48:35.739Z,2.30
2024-04-25T20:51:02.478Z,2.30
2024-04-25T20:53:29.239Z,2.36
2024-04-25T20:55:57.771Z,2.33
2024-04-25T20:58:26.086Z,2.32
2024-04-25T21:00:54.796Z,2.18
2024-04-25T21:03:21.614Z,2.22
2024-04-25T21:05:48.280Z,2.09
2024-04-25T21:08:14.830Z,2.06
2024-04-25T21:10:41.414Z,2.01
2024-04-25T21:13:07.997Z,2.07
2024-04-25T21:15:34.528Z,2.02
2024-04-25T21:18:01.241Z,1.99
2024-04-25T21:20:29.054Z,1.86
2024-04-25T21:22:55.608Z,1.93
2024-04-25T21:25:22.140Z,1.89
2024-04-25T21:27:48.704Z,1.90
2024-04-25T21:30:15.249Z,1.88
2024-04-25T21:32:45.028Z,1.88
2024-04-25T21:35:12.160Z,1.82
2024-04-25T21:37:38.886Z,1.88
2024-04-25T21:40:05.801Z,1.87
2024-04-25T21:42:32.336Z,1.87
2024-04-25T21:44:58.953Z,1.88
2024-04-25T21:47:25.526Z,1.90
2024-04-25T21:49:52.153Z,1.89
2024-04-25T21:52:18.734Z,1.90
2024-04-25T21:54:45.270Z,1.81
2024-04-25T21:57:17.804Z,1.85
2024-04-25T21:59:44.799Z,1.86
2024-04-25T22:02:11.391Z,1.84
2024-04-25T22:04:38.099Z,1.92
2024-04-25T22:07:04.830Z,1.95
2024-04-25T22:09:31.415Z,1.90
2024-04-25T22:11:58.156Z,1.99
2024-04-25T22:14:24.821Z,2.02
2024-04-25T22:16:51.467Z,2.05
2024-04-25T22:19:18.143Z,2.08
2024-04-25T22:21:49.887Z,2.12
2024-04-25T22:24:17.981Z,2.08
2024-04-25T22:26:45.788Z,2.14
2024-04-25T22:29:12.475Z,2.09
2024-04-25T22:31:39.031Z,2.15
2024-04-25T22:34:05.648Z,2.09
2024-04-25T22:36:32.254Z,2.20
2024-04-25T22:38:58.921Z,2.20
2024-04-25T22:41:25.642Z,2.21
2024-04-25T22:43:52.225Z,2.15
2024-04-25T22:46:18.818Z,2.23
2024-04-25T22:48:45.438Z,2.23
2024-04-25T22:51:12.128Z,2.12
2024-04-25T22:53:38.750Z,2.20
2024-04-25T22:56:07.507Z,2.24
2024-04-25T22:58:34.080Z,2.27
2024-04-25T23:01:00.659Z,2.19
2024-04-25T23:03:29.434Z,2.28
2024-04-25T23:05:57.916Z,2.28
2024-04-25T23:08:24.605Z,2.11
2024-04-25T23:10:51.509Z,2.30
2024-04-25T23:13:18.127Z,2.30
2024-04-25T23:15:44.732Z,2.31
2024-04-25T23:18:11.453Z,2.15
2024-04-25T23:20:38.289Z,2.30
2024-04-25T23:23:06.842Z,2.30
2024-04-25T23:25:33.486Z,2.24
2024-04-25T23:28:00.161Z,2.18
2024-04-25T23:30:26.789Z,2.25
2024-04-25T23:32:53.558Z,2.24
2024-04-25T23:35:20.536Z,2.16
2024-04-25T23:37:47.233Z,2.14
2024-04-25T23:40:13.967Z,2.14
2024-04-25T23:42:41.261Z,2.17
2024-04-25T23:45:08.222Z,2.19
2024-04-25T23:47:35.003Z,2.18
2024-04-25T23:50:01.737Z,2.09
2024-04-25T23:52:28.346Z,2.18
2024-04-25T23:54:54.907Z,2.18
2024-04-25T23:57:21.534Z,2.17
2024-04-25T23:59:48.191Z,2.16
